Time;durP1;ratioP1;P1;durP2;ratioP2;P2;SDS_P1;SDS_P2;PMS_P1;PMS_P2;Temp;Humidity;BMP_temperature;BMP_pressure;BME280_temperature;BME280_humidity;BME280_pressure;Samples;Min_cycle;Max_cycle;Signal;HPM_P1;HPM_P2
2021/10/19 03:47:38;;;;;;;14.65;4.22;;;;;;;26.00;41.87;100414.44;5687143;23;20060;-85
2021/10/19 03:50:04;;;;;;;13.73;3.60;;;;;;;26.01;41.89;100415.25;4904973;29;20040;-80
2021/10/19 03:52:30;;;;;;;9.75;3.72;;;;;;;26.02;42.17;100410.44;4905493;29;20047;-70
2021/10/19 03:54:55;;;;;;;14.82;3.58;;;;;;;26.03;42.12;100417.59;4907422;29;20128;-77
2021/10/19 03:57:21;;;;;;;9.43;3.13;;;;;;;25.97;42.29;100414.50;4913757;29;20422;-77
2021/10/19 03:59:46;;;;;;;11.10;2.72;;;;;;;25.98;42.49;100418.88;4908820;29;20024;-71
2021/10/19 04:02:12;;;;;;;10.45;3.05;;;;;;;25.98;42.20;100418.88;4909421;29;20040;-80
2021/10/19 04:04:37;;;;;;;9.80;3.22;;;;;;;25.92;42.56;100413.00;4907464;29;20124;-78
2021/10/19 04:07:03;;;;;;;6.32;2.25;;;;;;;26.00;42.26;100408.06;4908407;29;20064;-76
2021/10/19 04:09:30;;;;;;;10.02;2.28;;;;;;;26.02;42.57;100396.44;4908959;29;20063;-72
2021/10/19 04:11:56;;;;;;;9.98;2.38;;;;;;;26.02;42.51;100383.22;4907547;29;20032;-75
2021/10/19 04:14:21;;;;;;;8.90;3.28;;;;;;;26.06;42.47;100374.75;4908871;29;20498;-73
2021/10/19 04:16:47;;;;;;;5.95;2.20;;;;;;;26.10;42.31;100375.47;4908943;29;20029;-75
2021/10/19 04:19:13;;;;;;;12.25;3.05;;;;;;;26.06;42.36;100371.94;4907403;29;20095;-81
2021/10/19 04:21:41;;;;;;;10.57;3.42;;;;;;;26.03;42.51;100370.81;4909146;29;20114;-73
2021/10/19 04:24:07;;;;;;;8.15;2.78;;;;;;;25.99;42.73;100372.84;4908881;29;20028;-77
2021/10/19 04:26:33;;;;;;;7.90;2.40;;;;;;;25.99;42.44;100373.66;4907459;29;20036;-82
2021/10/19 04:28:59;;;;;;;5.97;2.70;;;;;;;25.94;43.05;100362.16;4909016;29;20028;-86
2021/10/19 04:31:24;;;;;;;7.78;3.00;;;;;;;25.92;42.92;100359.81;4909216;29;20021;-87
2021/10/19 04:33:50;;;;;;;9.02;2.50;;;;;;;25.96;43.09;100354.13;4910248;29;20020;-88
2021/10/19 04:36:16;;;;;;;7.00;2.78;;;;;;;25.94;42.88;100348.97;4907308;29;20044;-71
2021/10/19 04:38:42;;;;;;;10.57;2.92;;;;;;;25.91;43.06;100349.81;4908240;29;20076;-71
2021/10/19 04:41:08;;;;;;;10.18;3.05;;;;;;;25.93;43.29;100347.38;4908319;29;20047;-71
2021/10/19 04:43:33;;;;;;;8.60;3.33;;;;;;;25.95;43.32;100347.75;4908222;29;20024;-71
2021/10/19 04:45:59;;;;;;;7.25;2.75;;;;;;;25.99;43.27;100328.84;4907776;29;20423;-71
2021/10/19 04:48:24;;;;;;;11.80;3.33;;;;;;;25.88;43.57;100322.69;4909263;29;20056;-70
2021/10/19 04:50:50;;;;;;;8.68;2.50;;;;;;;25.87;43.88;100311.94;4908132;29;20036;-71
2021/10/19 04:53:16;;;;;;;10.98;3.78;;;;;;;25.87;43.83;100306.31;4908189;29;20479;-83
2021/10/19 04:55:42;;;;;;;7.90;2.60;;;;;;;25.94;43.85;100309.00;4909196;29;20121;-71
2021/10/19 04:58:07;;;;;;;8.80;2.25;;;;;;;25.97;43.64;100308.13;4907680;29;20116;-71
2021/10/19 05:00:33;;;;;;;7.35;2.40;;;;;;;25.98;43.54;100310.50;4908166;29;20043;-71
2021/10/19 05:02:59;;;;;;;10.82;2.67;;;;;;;26.03;43.37;100303.63;4906716;29;20028;-72
2021/10/19 05:05:25;;;;;;;10.52;3.38;;;;;;;25.92;43.76;100303.00;4907525;29;20063;-72
2021/10/19 05:07:51;;;;;;;11.13;2.63;;;;;;;25.94;43.83;100301.38;4912588;29;20072;-69
2021/10/19 05:10:18;;;;;;;6.93;2.25;;;;;;;25.92;43.82;100308.59;4916901;29;20067;-73
2021/10/19 05:12:44;;;;;;;10.55;2.33;;;;;;;25.94;43.76;100297.78;4917257;29;20498;-76
2021/10/19 05:15:10;;;;;;;11.57;2.60;;;;;;;25.96;43.61;100298.94;4917918;29;20028;-77
2021/10/19 05:17:36;;;;;;;7.93;1.77;;;;;;;25.94;44.02;100287.38;4918948;29;20039;-90
2021/10/19 05:20:04;;;;;;;6.88;2.22;;;;;;;25.89;43.98;100267.50;4918048;29;20032;-76
2021/10/19 05:22:29;;;;;;;7.05;1.77;;;;;;;25.84;44.23;100251.97;4918155;29;20060;-76
2021/10/19 05:24:55;;;;;;;3.25;1.58;;;;;;;25.93;43.83;100252.22;4918224;29;20059;-70
2021/10/19 05:27:20;;;;;;;5.32;1.85;;;;;;;25.90;44.17;100255.06;4917851;29;20527;-71
2021/10/19 05:29:46;;;;;;;10.82;1.90;;;;;;;25.92;43.94;100264.66;4917792;29;20086;-75
2021/10/19 05:32:11;;;;;;;16.80;2.47;;;;;;;25.97;43.62;100269.72;4917635;29;20059;-83
2021/10/19 05:34:37;;;;;;;7.50;2.42;;;;;;;25.89;44.00;100270.28;4918041;29;20036;-86
2021/10/19 05:37:03;;;;;;;5.85;1.95;;;;;;;26.04;43.85;100259.63;4918177;29;20032;-75
2021/10/19 05:39:28;;;;;;;7.20;2.08;;;;;;;25.94;43.95;100264.22;4918011;29;20035;-78
2021/10/19 05:41:54;;;;;;;5.38;1.60;;;;;;;25.89;44.03;100257.09;4918087;29;20060;-88
2021/10/19 05:44:21;;;;;;;9.85;2.08;;;;;;;25.95;43.90;100252.56;4918144;29;20084;-71
2021/10/19 05:46:46;;;;;;;5.88;2.17;;;;;;;25.93;44.06;100251.44;4917336;29;20111;-77
2021/10/19 05:49:12;;;;;;;6.90;1.88;;;;;;;25.64;44.50;100240.75;4917614;29;20455;-71
2021/10/19 05:51:38;;;;;;;6.85;2.13;;;;;;;25.89;44.33;100247.91;4918083;29;20032;-78
2021/10/19 05:54:03;;;;;;;4.72;1.90;;;;;;;25.93;44.00;100238.22;4917607;29;20036;-70
2021/10/19 05:56:29;;;;;;;5.88;1.90;;;;;;;25.95;44.02;100233.00;4917805;29;20497;-78
2021/10/19 05:58:54;;;;;;;4.13;1.60;;;;;;;25.97;43.93;100232.56;4917601;29;20063;-74
2021/10/19 06:01:20;;;;;;;4.43;1.65;;;;;;;25.92;44.10;100228.25;4917610;29;20035;-71
2021/10/19 06:03:45;;;;;;;3.72;1.20;;;;;;;25.93;44.31;100235.44;4917143;29;20036;-71
2021/10/19 06:06:15;;;;;;;3.05;1.30;;;;;;;25.79;44.78;100230.13;4916854;29;20039;-84
2021/10/19 06:08:41;;;;;;;12.68;3.33;;;;;;;26.08;43.71;100223.94;4908003;29;20123;-73
2021/10/19 06:11:07;;;;;;;2.85;1.40;;;;;;;26.24;43.42;100210.78;4897982;29;20039;-72
2021/10/19 06:13:33;;;;;;;3.35;1.30;;;;;;;26.30;43.27;100205.47;4896812;29;20032;-71
2021/10/19 06:16:00;;;;;;;4.00;1.50;;;;;;;26.27;43.41;100198.72;4897140;29;20067;-84
2021/10/19 06:18:26;;;;;;;7.22;2.10;;;;;;;26.20;43.52;100186.88;4896905;29;20073;-77
2021/10/19 06:20:52;;;;;;;4.63;2.00;;;;;;;26.11;44.06;100183.88;4898492;29;20029;-71
2021/10/19 06:23:19;;;;;;;4.25;1.73;;;;;;;26.18;43.90;100178.91;4897883;29;20028;-71
2021/10/19 06:25:45;;;;;;;5.82;1.88;;;;;;;26.13;44.13;100173.03;4898038;29;20124;-72
2021/10/19 06:28:11;;;;;;;3.22;1.00;;;;;;;26.08;44.09;100168.75;4897880;29;20392;-82
2021/10/19 06:30:38;;;;;;;3.90;1.08;;;;;;;26.23;43.71;100158.03;4897946;29;20036;-77
2021/10/19 06:33:04;;;;;;;5.03;1.65;;;;;;;26.20;44.07;100154.06;4897916;29;20028;-79
2021/10/19 06:35:29;;;;;;;2.33;1.05;;;;;;;26.12;44.22;100149.84;4898111;29;20031;-87
2021/10/19 06:37:55;;;;;;;1.92;1.17;;;;;;;26.06;44.24;100143.19;4900623;29;20391;-76
2021/10/19 06:40:21;;;;;;;3.42;1.98;;;;;;;26.02;44.48;100152.88;4909699;29;20039;-81
2021/10/19 06:42:47;;;;;;;2.83;0.68;;;;;;;26.02;44.46;100141.69;4916767;29;20040;-74
2021/10/19 06:45:13;;;;;;;1.65;0.90;;;;;;;26.02;44.40;100125.69;4916751;29;20035;-85
2021/10/19 06:47:39;;;;;;;3.35;1.35;;;;;;;26.06;44.64;100111.59;4915082;29;20076;-78
2021/10/19 06:50:07;;;;;;;4.70;1.38;;;;;;;25.89;44.99;100099.56;4905307;29;20039;-72
2021/10/19 06:52:36;;;;;;;2.67;0.88;;;;;;;25.97;44.76;100109.41;4907467;29;20615;-76
2021/10/19 06:55:03;;;;;;;2.72;1.00;;;;;;;26.10;44.37;100096.31;4904702;29;20029;-73
2021/10/19 06:57:30;;;;;;;3.33;1.10;;;;;;;26.06;44.52;100104.00;4904733;29;20055;-76
2021/10/19 06:59:59;;;;;;;5.88;1.23;;;;;;;26.03;44.54;100110.47;4915843;29;20028;-71
2021/10/19 07:02:25;;;;;;;1.70;0.75;;;;;;;26.16;44.38;100102.19;4916219;29;20028;-71
2021/10/19 07:04:51;;;;;;;6.97;1.30;;;;;;;26.22;44.11;100097.63;4916321;29;20107;-73
2021/10/19 07:07:16;;;;;;;5.97;1.27;;;;;;;26.08;44.50;100101.56;4917046;29;20368;-71
2021/10/19 07:09:43;;;;;;;7.07;1.55;;;;;;;26.11;44.65;100114.69;4918623;29;20036;-71
2021/10/19 07:12:08;;;;;;;6.35;1.70;;;;;;;26.13;44.54;100105.84;4919877;29;20023;-72
2021/10/19 07:14:34;;;;;;;3.45;1.42;;;;;;;26.06;44.89;100083.59;4919900;29;20486;-75
2021/10/19 07:16:59;;;;;;;3.30;1.20;;;;;;;26.12;44.54;100088.25;4919640;29;20526;-71
2021/10/19 07:19:25;;;;;;;4.15;1.80;;;;;;;26.24;44.30;100082.00;4919752;29;20475;-73
2021/10/19 07:21:50;;;;;;;5.63;2.22;;;;;;;26.17;44.45;100089.75;4919736;29;20044;-76
2021/10/19 07:24:16;;;;;;;6.10;2.30;;;;;;;26.25;44.24;100085.56;4909701;29;20036;-75
2021/10/19 07:26:42;;;;;;;4.75;2.17;;;;;;;26.23;44.30;100079.63;4908545;29;20037;-72
2021/10/19 07:29:07;;;;;;;6.28;2.30;;;;;;;26.31;44.30;100081.03;4908768;29;20032;-73
2021/10/19 07:31:33;;;;;;;9.05;2.78;;;;;;;26.22;44.49;100078.03;4910246;29;20024;-72
2021/10/19 07:33:58;;;;;;;6.10;2.58;;;;;;;26.23;44.31;100076.81;4908872;29;20036;-72
2021/10/19 07:36:25;;;;;;;4.30;2.10;;;;;;;26.21;44.50;100093.25;4909782;29;20040;-75
2021/10/19 07:38:52;;;;;;;5.90;2.50;;;;;;;26.18;44.76;100097.72;4900778;29;20029;-73
2021/10/19 07:41:18;;;;;;;6.00;2.97;;;;;;;26.28;44.41;100101.50;4900152;29;20036;-72
2021/10/19 07:43:44;;;;;;;7.75;3.45;;;;;;;26.32;44.55;100093.81;4899324;29;20063;-72
2021/10/19 07:46:09;;;;;;;6.53;3.60;;;;;;;26.32;44.44;100082.59;4899406;29;20502;-77
2021/10/19 07:48:35;;;;;;;6.90;3.40;;;;;;;26.28;44.39;100084.69;4900244;29;20040;-72
2021/10/19 07:51:00;;;;;;;6.93;3.03;;;;;;;26.45;44.20;100083.53;4900507;29;20391;-73
2021/10/19 07:53:26;;;;;;;5.03;3.35;;;;;;;26.37;44.59;100096.06;4900530;29;20024;-77
2021/10/19 07:55:52;;;;;;;10.25;5.05;;;;;;;26.41;44.39;100087.63;4900081;29;20423;-74
2021/10/19 07:58:17;;;;;;;5.13;3.40;;;;;;;26.49;44.09;100089.81;4898653;29;20025;-75
2021/10/19 08:00:43;;;;;;;7.30;3.92;;;;;;;26.33;44.57;100075.78;4898219;29;20429;-73
2021/10/19 08:03:08;;;;;;;9.55;3.40;;;;;;;26.46;44.32;100078.72;4898625;29;20087;-72
2021/10/19 08:05:34;;;;;;;6.95;3.35;;;;;;;26.45;44.33;100083.53;4898994;29;20108;-72
2021/10/19 08:08:10;;;;;;;5.82;3.30;;;;;;;26.50;44.37;100085.00;4898904;29;20037;-73
2021/10/19 08:10:38;;;;;;;6.57;2.53;;;;;;;26.42;44.43;100092.00;4899267;29;20032;-76
2021/10/19 08:13:04;;;;;;;4.78;2.65;;;;;;;26.42;44.53;100087.19;4899689;29;20164;-77
2021/10/19 08:15:30;;;;;;;7.38;2.53;;;;;;;26.47;44.60;100069.88;4899936;29;20040;-74
2021/10/19 08:17:55;;;;;;;4.93;2.35;;;;;;;26.49;44.58;100075.03;4898383;29;20036;-73
2021/10/19 08:20:21;;;;;;;6.78;2.90;;;;;;;26.48;44.63;100070.66;4899852;29;20064;-72
2021/10/19 08:22:47;;;;;;;5.35;2.30;;;;;;;26.54;44.26;100068.91;4899807;29;20029;-75
2021/10/19 08:25:13;;;;;;;6.88;2.90;;;;;;;26.49;44.43;100063.81;4899787;29;20024;-75
2021/10/19 08:27:42;;;;;;;6.20;2.67;;;;;;;26.53;44.70;100047.72;4899569;29;20048;-80
2021/10/19 08:30:10;;;;;;;5.15;2.28;;;;;;;26.46;44.62;100042.28;4899630;29;20042;-78
2021/10/19 08:32:35;;;;;;;6.97;2.58;;;;;;;26.42;44.88;100031.16;4899636;29;20092;-74
2021/10/19 08:35:02;;;;;;;9.48;2.78;;;;;;;26.62;44.40;100021.88;4899580;29;20032;-73
2021/10/19 08:37:27;;;;;;;5.72;2.20;;;;;;;26.65;44.24;100032.19;4898341;29;20036;-72
2021/10/19 08:39:53;;;;;;;7.88;1.98;;;;;;;26.62;44.30;100045.09;4899420;29;20506;-73
2021/10/19 08:42:18;;;;;;;4.30;1.95;;;;;;;26.57;44.56;100047.63;4899397;29;20048;-72
2021/10/19 08:44:45;;;;;;;4.85;1.77;;;;;;;26.63;44.25;100051.47;4899396;29;20032;-73
2021/10/19 08:47:11;;;;;;;7.28;1.85;;;;;;;26.51;44.66;100036.94;4898973;29;20059;-73
2021/10/19 08:49:37;;;;;;;11.57;2.50;;;;;;;26.64;44.30;100030.63;4899381;29;20064;-76
2021/10/19 08:52:03;;;;;;;4.88;2.10;;;;;;;26.69;44.51;100035.72;4899122;29;20053;-73
2021/10/19 08:54:29;;;;;;;6.03;1.83;;;;;;;26.76;44.42;100035.53;4899181;29;20032;-72
2021/10/19 08:56:54;;;;;;;8.05;2.50;;;;;;;26.85;44.31;100024.47;4899206;29;20028;-73
2021/10/19 08:59:22;;;;;;;4.22;1.60;;;;;;;26.86;44.40;100031.63;4899195;29;20064;-73
2021/10/19 09:01:48;;;;;;;4.43;1.33;;;;;;;26.94;44.25;100023.81;4899329;29;20040;-73
2021/10/19 09:04:14;;;;;;;5.93;1.90;;;;;;;26.87;44.55;100027.59;4898978;29;20056;-74
2021/10/19 09:06:42;;;;;;;4.55;1.58;;;;;;;26.97;44.53;100029.31;4898931;29;20067;-71
2021/10/19 09:09:16;;;;;;;4.38;1.42;;;;;;;27.10;44.25;100018.97;4898926;29;20037;-75
2021/10/19 09:11:47;;;;;;;3.25;1.50;;;;;;;27.07;44.62;100014.25;4898905;29;20463;-72
2021/10/19 09:14:14;;;;;;;6.65;1.80;;;;;;;27.07;44.60;100014.25;4898813;29;20424;-76
2021/10/19 09:16:50;;;;;;;5.15;1.40;;;;;;;27.20;44.47;100019.09;4898790;29;20039;-79
2021/10/19 09:19:18;;;;;;;10.50;2.95;;;;;;;27.37;44.58;100010.19;4898837;29;20040;-76
2021/10/19 09:21:46;;;;;;;6.07;1.30;;;;;;;27.48;44.67;100006.28;4898676;29;20420;-79
2021/10/19 09:24:27;;;;;;;5.03;1.05;;;;;;;27.60;44.82;100005.53;4898725;29;20391;-74
2021/10/19 09:27:29;;;;;;;5.28;1.60;;;;;;;27.67;44.75;100010.94;4898533;29;20069;-74
2021/10/19 09:29:54;;;;;;;3.92;1.50;;;;;;;27.81;44.95;99992.84;4876347;29;20048;-71
2021/10/19 09:32:20;;;;;;;2.75;1.23;;;;;;;27.96;44.95;99993.19;4898536;29;20035;-73
2021/10/19 09:34:48;;;;;;;1.20;0.82;;;;;;;28.26;44.19;99995.41;4898547;29;20570;-71
2021/10/19 09:37:19;;;;;;;4.70;1.30;;;;;;;28.20;44.59;99997.25;4898399;29;20056;-74
2021/10/19 09:39:48;;;;;;;3.22;1.30;;;;;;;28.31;44.40;100000.50;4898419;29;20029;-72
2021/10/19 09:42:22;;;;;;;1.13;0.77;;;;;;;28.16;44.43;99986.09;4898462;29;20391;-79
2021/10/19 09:45:00;;;;;;;5.45;1.17;;;;;;;28.41;44.11;99981.69;4898442;29;20039;-74
2021/10/19 09:47:37;;;;;;;2.90;1.13;;;;;;;28.51;44.06;99983.38;4897598;29;20147;-74
2021/10/19 09:50:07;;;;;;;3.63;1.45;;;;;;;28.52;44.14;99975.72;4898648;29;20028;-78
2021/10/19 09:52:37;;;;;;;2.88;0.80;;;;;;;28.42;44.32;99967.22;4898209;29;20111;-73
2021/10/19 09:55:08;;;;;;;3.28;1.00;;;;;;;28.48;44.02;99967.41;4898216;29;20443;-74
2021/10/19 09:57:34;;;;;;;1.95;0.82;;;;;;;28.48;44.28;99982.25;4898378;29;20115;-74
2021/10/19 10:00:00;;;;;;;6.03;1.00;;;;;;;28.53;43.94;99989.31;4898708;29;20092;-78
2021/10/19 10:02:26;;;;;;;1.55;0.38;;;;;;;28.52;43.87;99973.69;4897990;29;20024;-73
2021/10/19 10:04:53;;;;;;;1.05;0.40;;;;;;;28.42;44.31;99966.44;4897271;29;20576;-72
2021/10/19 10:07:21;;;;;;;6.00;1.55;;;;;;;28.47;44.14;99961.00;4896585;29;20063;-71
2021/10/19 10:09:48;;;;;;;1.67;0.65;;;;;;;28.55;43.99;99955.13;4897964;29;20052;-72
2021/10/19 10:12:14;;;;;;;2.63;0.93;;;;;;;28.38;44.23;99954.53;4898013;29;20056;-73
2021/10/19 10:14:45;;;;;;;1.02;0.38;;;;;;;28.45;44.15;99957.88;4898026;29;20384;-71
2021/10/19 10:17:12;;;;;;;0.93;0.32;;;;;;;28.57;43.87;99942.22;4897774;29;20028;-73
2021/10/19 10:19:38;;;;;;;0.43;0.30;;;;;;;28.61;43.83;99959.72;4896487;29;20097;-73
2021/10/19 10:22:28;;;;;;;1.20;0.50;;;;;;;28.59;43.45;99950.97;4898241;29;20036;-78
2021/10/19 10:25:04;;;;;;;;;;;;;;;28.57;43.87;99955.50;4898401;29;20092;-73
2021/10/19 10:27:30;;;;;;;3.50;1.02;;;;;;;28.48;44.10;99950.53;4896214;29;20267;-72
2021/10/19 10:29:55;;;;;;;0.32;0.30;;;;;;;28.55;43.84;99961.53;4897903;29;20029;-71
2021/10/19 10:32:35;;;;;;;0.40;0.40;;;;;;;28.57;43.79;99967.50;4897495;29;20036;-71
2021/10/19 10:35:08;;;;;;;7.15;2.45;;;;;;;28.81;43.33;99962.25;4897480;29;20544;-72
2021/10/19 10:37:39;;;;;;;0.68;0.30;;;;;;;28.75;43.49;99942.34;4897589;29;20025;-70
2021/10/19 10:40:07;;;;;;;0.75;0.47;;;;;;;28.97;42.97;99941.59;4897603;29;20466;-72
2021/10/19 10:42:43;;;;;;;1.13;0.40;;;;;;;29.04;43.40;99937.75;4896815;29;20025;-71
2021/10/19 10:45:22;;;;;;;0.52;0.30;;;;;;;28.89;43.59;99960.72;4896510;29;20028;-70
2021/10/19 10:47:55;;;;;;;0.80;0.40;;;;;;;29.25;43.46;99951.78;4895931;29;20475;-71
2021/10/19 10:50:21;;;;;;;1.65;0.40;;;;;;;29.40;43.22;99968.13;4897681;29;20036;-71
2021/10/19 10:53:04;;;;;;;1.90;0.60;;;;;;;29.46;43.25;99941.72;4897654;29;20576;-71
2021/10/19 10:55:39;;;;;;;1.75;0.75;;;;;;;29.67;42.75;99934.50;4896126;29;20041;-71
2021/10/19 10:58:05;;;;;;;1.38;0.35;;;;;;;29.73;42.44;99937.50;4897388;29;20028;-71
2021/10/19 11:00:31;;;;;;;0.88;0.50;;;;;;;29.74;42.73;99948.28;4897358;29;20037;-72
2021/10/19 11:03:09;;;;;;;1.55;0.63;;;;;;;29.75;42.31;99947.03;4897306;29;20498;-71
2021/10/19 11:05:37;;;;;;;3.28;0.85;;;;;;;29.61;42.58;99952.44;4897208;29;20033;-72
2021/10/19 11:08:04;;;;;;;1.02;0.50;;;;;;;29.65;42.66;99964.34;4897232;29;20076;-74
2021/10/19 11:10:29;;;;;;;1.25;0.63;;;;;;;29.55;42.75;99955.88;4897241;29;20028;-73
2021/10/19 11:13:00;;;;;;;1.20;0.50;;;;;;;29.73;42.27;99951.56;4897279;29;20395;-76
2021/10/19 11:15:26;;;;;;;1.00;0.50;;;;;;;29.77;41.92;99952.97;4896058;29;20032;-81
2021/10/19 11:17:53;;;;;;;1.10;0.45;;;;;;;29.83;41.59;99944.72;4897265;29;20395;-74
2021/10/19 11:20:21;;;;;;;0.38;0.28;;;;;;;29.68;41.84;99950.13;4901051;29;20035;-74
2021/10/19 11:22:48;;;;;;;2.13;0.40;;;;;;;29.91;41.58;99940.34;4905403;29;20501;-73
2021/10/19 11:25:14;;;;;;;3.30;0.77;;;;;;;29.70;41.89;99952.47;4905303;29;20094;-74
2021/10/19 11:27:41;;;;;;;1.35;0.60;;;;;;;29.68;41.97;99952.94;4905002;29;20119;-75
2021/10/19 11:30:09;;;;;;;0.77;0.50;;;;;;;29.65;41.74;99961.53;4907329;29;20040;-76
2021/10/19 11:32:36;;;;;;;0.77;0.60;;;;;;;29.25;42.30;99946.16;4905737;29;20059;-75
2021/10/19 11:35:03;;;;;;;1.20;0.40;;;;;;;29.62;41.87;99951.19;4906120;29;20023;-74
2021/10/19 11:37:29;;;;;;;1.17;0.38;;;;;;;29.62;41.84;99946.34;4906082;29;20446;-74
2021/10/19 11:40:10;;;;;;;2.95;0.50;;;;;;;29.67;41.71;99947.78;4915973;29;20108;-74
2021/10/19 11:42:48;;;;;;;1.35;0.70;;;;;;;29.73;41.76;99941.09;4916017;29;20036;-87
2021/10/19 11:45:15;;;;;;;3.05;0.63;;;;;;;29.56;41.68;99943.38;4916198;29;20032;-79
2021/10/19 11:47:55;;;;;;;1.30;0.50;;;;;;;29.74;41.25;99936.25;4915860;29;20139;-74
2021/10/19 11:50:27;;;;;;;1.60;0.40;;;;;;;29.74;41.31;99942.66;4916090;29;20079;-78
2021/10/19 11:52:53;;;;;;;2.08;0.55;;;;;;;29.60;41.92;99948.06;4916747;29;20115;-74
2021/10/19 11:55:19;;;;;;;1.27;0.50;;;;;;;29.79;41.27;99944.09;4918065;29;20099;-75
2021/10/19 11:57:53;;;;;;;2.22;0.70;;;;;;;29.77;41.46;99936.09;4919312;29;20428;-75
2021/10/19 12:00:21;;;;;;;1.05;0.50;;;;;;;29.68;41.60;99941.69;4919050;29;20039;-74
2021/10/19 12:02:51;;;;;;;1.40;0.50;;;;;;;29.67;41.83;99939.34;4919027;29;20060;-74
2021/10/19 12:05:17;;;;;;;2.28;0.70;;;;;;;29.67;41.69;99947.78;4919175;29;20035;-73
2021/10/19 12:07:51;;;;;;;1.20;0.60;;;;;;;29.64;41.58;99932.63;4919148;29;20036;-78
2021/10/19 12:10:28;;;;;;;2.70;0.60;;;;;;;29.56;41.96;99932.13;4919296;29;20059;-75
2021/10/19 12:12:56;;;;;;;2.10;0.82;;;;;;;29.80;41.45;99932.34;4919395;29;20051;-84
2021/10/19 12:15:23;;;;;;;1.33;0.70;;;;;;;29.56;41.80;99925.72;4920006;29;20088;-89
2021/10/19 12:17:53;;;;;;;3.22;0.90;;;;;;;29.66;41.67;99924.47;4918640;29;20060;-76
2021/10/19 12:20:19;;;;;;;6.35;1.35;;;;;;;29.62;41.83;99921.00;4900439;29;20392;-75
2021/10/19 12:22:45;;;;;;;1.33;0.75;;;;;;;29.83;41.73;99917.34;4915390;29;20111;-76
2021/10/19 12:25:10;;;;;;;2.65;1.02;;;;;;;29.95;41.43;99920.50;4915820;29;20096;-79
2021/10/19 12:27:39;;;;;;;1.52;0.60;;;;;;;29.98;41.09;99905.47;4908920;29;20060;-86
2021/10/19 12:30:16;;;;;;;6.17;1.10;;;;;;;29.95;41.15;99917.69;4904394;29;20075;-87
2021/10/19 12:32:42;;;;;;;2.15;0.88;;;;;;;30.07;40.81;99905.50;4907049;29;20032;-83
2021/10/19 12:35:10;;;;;;;1.55;0.60;;;;;;;29.86;41.35;99892.34;4907140;29;20044;-75
2021/10/19 12:37:38;;;;;;;3.72;1.15;;;;;;;29.98;41.44;99902.66;4918801;29;20486;-73
2021/10/19 12:40:05;;;;;;;4.75;0.95;;;;;;;30.07;40.96;99905.50;4918453;29;20035;-90
2021/10/19 12:42:31;;;;;;;1.10;0.60;;;;;;;30.07;41.40;99899.84;4918546;29;20040;-74
2021/10/19 12:44:57;;;;;;;3.53;0.88;;;;;;;29.97;41.55;99910.34;4918417;29;20031;-74
2021/10/19 12:47:23;;;;;;;2.85;0.90;;;;;;;29.92;41.80;99899.69;4917320;29;20055;-75
2021/10/19 12:49:48;;;;;;;1.60;0.90;;;;;;;30.10;41.31;99901.78;4904805;29;20597;-75
2021/10/19 12:52:14;;;;;;;2.72;0.90;;;;;;;30.01;41.08;99893.31;4907631;29;20029;-74
2021/10/19 12:54:39;;;;;;;1.90;0.70;;;;;;;30.08;41.32;99896.63;4907050;29;20076;-74
2021/10/19 12:57:06;;;;;;;3.47;0.60;;;;;;;30.14;41.17;99888.31;4912315;29;20012;-74
2021/10/19 12:59:32;;;;;;;1.50;0.60;;;;;;;30.05;41.43;99871.38;4907683;29;20080;-74
2021/10/19 13:01:59;;;;;;;4.65;0.93;;;;;;;30.11;41.25;99870.31;4914108;29;20028;-75
2021/10/19 13:04:25;;;;;;;2.00;0.50;;;;;;;30.00;41.42;99869.19;4915292;29;20373;-75
2021/10/19 13:06:51;;;;;;;2.55;0.80;;;;;;;30.08;41.40;99867.66;4915131;29;20029;-75
2021/10/19 13:09:17;;;;;;;3.47;0.85;;;;;;;30.05;41.16;99860.13;4897790;29;20036;-75
2021/10/19 13:11:43;;;;;;;1.77;0.80;;;;;;;30.07;41.27;99863.25;4899518;29;20021;-89
2021/10/19 13:14:10;;;;;;;1.52;0.65;;;;;;;30.02;41.45;99849.81;4898188;29;20028;-76
2021/10/19 13:16:36;;;;;;;2.70;0.93;;;;;;;29.93;41.29;99839.31;4899006;29;20119;-76
2021/10/19 13:19:02;;;;;;;3.55;1.00;;;;;;;29.83;41.83;99832.88;4899047;29;20112;-75
2021/10/19 13:21:27;;;;;;;7.20;1.63;;;;;;;29.79;41.70;99837.88;4897995;29;20033;-75
2021/10/19 13:23:53;;;;;;;2.28;0.73;;;;;;;30.30;40.50;99833.69;4898801;29;20032;-75
2021/10/19 13:26:20;;;;;;;2.38;1.05;;;;;;;30.50;39.97;99838.84;4898762;29;20028;-75
2021/10/19 13:28:46;;;;;;;3.30;0.65;;;;;;;30.30;40.40;99840.13;4898719;29;20048;-74
2021/10/19 13:31:12;;;;;;;3.10;0.82;;;;;;;30.60;40.04;99837.59;4898706;29;20017;-75
2021/10/19 13:33:37;;;;;;;0.80;0.60;;;;;;;30.45;40.17;99840.25;4898759;29;20036;-78
2021/10/19 13:36:04;;;;;;;1.77;0.65;;;;;;;30.57;40.16;99850.59;4898016;29;20021;-75
2021/10/19 13:38:33;;;;;;;2.28;0.77;;;;;;;30.59;39.96;99836.03;4898402;29;20028;-78
2021/10/19 13:40:59;;;;;;;;;;;;;;;30.41;40.01;99847.31;4898828;29;20467;-80
2021/10/19 13:43:26;;;;;;;6.47;1.75;;;;;;;30.36;40.39;99841.06;4897180;29;19927;-77
2021/10/19 13:45:52;;;;;;;6.93;1.15;;;;;;;30.56;40.12;99831.34;4898300;29;20059;-79
2021/10/19 13:48:17;;;;;;;5.35;1.42;;;;;;;30.70;39.28;99827.91;4898096;29;20093;-79
2021/10/19 13:50:43;;;;;;;5.80;1.00;;;;;;;30.72;39.77;99831.03;4897475;29;20226;-75
2021/10/19 13:53:09;;;;;;;6.38;1.35;;;;;;;30.63;39.59;99826.16;4896847;29;20029;-77
2021/10/19 13:55:36;;;;;;;2.13;0.60;;;;;;;30.67;39.71;99806.28;4898210;29;20031;-75
2021/10/19 13:58:03;;;;;;;4.55;1.27;;;;;;;30.61;39.35;99813.78;4898066;29;20035;-75
2021/10/19 14:00:28;;;;;;;1.48;0.80;;;;;;;30.49;39.83;99817.56;4898028;29;20028;-75
2021/10/19 14:02:54;;;;;;;7.88;1.15;;;;;;;30.43;39.89;99814.59;4897700;29;20028;-76
2021/10/19 14:05:20;;;;;;;1.92;0.70;;;;;;;30.57;39.30;99822.41;4916777;29;20035;-75
2021/10/19 14:07:46;;;;;;;4.82;0.98;;;;;;;30.54;39.60;99811.31;4916783;29;20054;-75
2021/10/19 14:10:11;;;;;;;4.30;1.05;;;;;;;30.38;39.56;99821.66;4916775;29;20035;-75
2021/10/19 14:12:38;;;;;;;6.05;2.45;;;;;;;30.45;39.82;99814.13;4915523;29;20036;-74
2021/10/19 14:15:05;;;;;;;3.67;1.25;;;;;;;30.49;39.78;99811.94;4916679;29;20020;-75
2021/10/19 14:17:31;;;;;;;5.30;2.65;;;;;;;30.51;39.78;99815.81;4916633;29;20028;-73
2021/10/19 14:19:57;;;;;;;6.70;1.48;;;;;;;30.29;40.19;99818.03;4916572;29;20028;-75
2021/10/19 14:22:23;;;;;;;4.07;1.30;;;;;;;30.22;39.61;99802.25;4915650;29;20028;-74
2021/10/19 14:24:49;;;;;;;4.68;1.20;;;;;;;30.22;39.60;99799.41;4914962;29;20379;-75
2021/10/19 14:27:15;;;;;;;5.38;1.20;;;;;;;30.25;39.66;99801.31;4915637;29;20509;-74
2021/10/19 14:29:44;;;;;;;2.05;1.10;;;;;;;30.27;39.58;99792.38;4916373;29;20080;-74
2021/10/19 14:32:10;;;;;;;6.88;1.50;;;;;;;30.11;39.84;99811.19;4906098;29;20036;-74
2021/10/19 14:34:35;;;;;;;4.15;1.23;;;;;;;30.03;39.48;99807.06;4896202;29;20111;-73
2021/10/19 14:37:02;;;;;;;2.28;1.10;;;;;;;30.11;39.58;99796.31;4896414;29;20448;-73
2021/10/19 14:39:28;;;;;;;3.15;1.60;;;;;;;30.22;38.91;99798.63;4896159;29;20075;-74
2021/10/19 14:41:55;;;;;;;3.97;1.30;;;;;;;30.19;39.15;99806.00;4895642;29;20060;-74
2021/10/19 14:44:21;;;;;;;5.05;1.70;;;;;;;30.06;39.33;99805.34;4895570;29;20111;-74
2021/10/19 14:46:48;;;;;;;2.25;1.08;;;;;;;30.28;38.92;99791.91;4895534;29;20249;-74
2021/10/19 14:49:16;;;;;;;5.03;1.48;;;;;;;30.42;39.36;99781.25;4895456;29;20048;-74
2021/10/19 14:51:43;;;;;;;6.10;1.50;;;;;;;30.49;39.24;99789.38;4895737;29;20088;-75
2021/10/19 14:54:11;;;;;;;3.72;1.38;;;;;;;30.53;39.07;99787.16;4896256;29;20029;-78
2021/10/19 14:56:37;;;;;;;6.72;1.30;;;;;;;30.59;38.42;99774.00;4896501;29;20480;-74
2021/10/19 14:59:03;;;;;;;6.28;1.48;;;;;;;30.54;38.37;99794.41;4896487;29;20108;-74
2021/10/19 15:01:29;;;;;;;8.70;1.70;;;;;;;30.56;38.55;99794.69;4897387;29;20025;-73
2021/10/19 15:03:54;;;;;;;7.03;1.98;;;;;;;30.36;38.65;99795.97;4897239;29;20025;-73
2021/10/19 15:06:20;;;;;;;3.05;1.08;;;;;;;30.52;38.19;99782.78;4896914;29;20025;-75
2021/10/19 15:08:47;;;;;;;3.90;1.10;;;;;;;30.52;38.08;99794.84;4901560;29;20033;-74
2021/10/19 15:11:12;;;;;;;4.43;1.58;;;;;;;30.44;38.27;99802.06;4898787;29;20028;-75
2021/10/19 15:13:38;;;;;;;5.60;1.65;;;;;;;30.49;38.15;99792.97;4910054;29;20514;-74
2021/10/19 15:16:04;;;;;;;6.68;1.40;;;;;;;30.41;38.40;99797.38;4916302;29;20020;-74